Time;durP1;ratioP1;P1;durP2;ratioP2;P2;SDS_P1;SDS_P2;PMS_P1;PMS_P2;Temp;Humidity;BMP_temperature;BMP_pressure;BME280_temperature;BME280_humidity;BME280_pressure;Samples;Min_cycle;Max_cycle;Signal;HPM_P1;HPM_P2
2022/07/12 00:01:43;;;;;;;6.28;3.70;;;;;;;;;;4991011;28;20093;-94
2022/07/12 00:04:08;;;;;;;6.15;4.05;;;;;;;;;;4988314;28;20046;-93
2022/07/12 00:06:33;;;;;;;7.47;4.45;;;;;;;;;;4992424;28;20565;-95
2022/07/12 00:08:58;;;;;;;6.50;4.00;;;;;;;;;;4989284;28;20023;-92
2022/07/12 00:11:24;;;;;;;9.80;4.30;;;;;;;;;;4988648;28;20037;-93
2022/07/12 00:13:49;;;;;;;6.40;3.58;;;;;;;;;;4988531;28;20042;-94
2022/07/12 00:16:15;;;;;;;6.60;4.20;;;;;;;;;;4986619;28;20129;-93
2022/07/12 00:18:41;;;;;;;7.15;4.15;;;;;;;;;;4991490;28;20040;-93
2022/07/12 00:21:07;;;;;;;6.65;4.03;;;;;;;;;;4988999;28;20026;-94
2022/07/12 00:23:33;;;;;;;6.40;4.13;;;;;;;;;;4990801;28;20037;-94
2022/07/12 00:26:02;;;;;;;7.40;3.85;;;;;;;;;;4990371;28;20041;-93
2022/07/12 00:28:27;;;;;;;7.18;4.20;;;;;;;;;;4990340;28;20037;-90
2022/07/12 00:30:53;;;;;;;6.85;4.25;;;;;;;;;;4989399;28;20034;-94
2022/07/12 00:33:18;;;;;;;7.57;4.10;;;;;;;;;;4990434;28;20082;-92
2022/07/12 00:35:43;;;;;;;9.68;4.35;;;;;;;;;;4990305;28;20018;-92
2022/07/12 00:38:09;;;;;;;6.50;4.43;;;;;;;;;;4989993;28;20062;-94
2022/07/12 00:40:34;;;;;;;9.43;4.50;;;;;;;;;;4988805;28;20097;-93
2022/07/12 00:42:59;;;;;;;6.90;4.30;;;;;;;;;;4989624;28;20041;-92
2022/07/12 00:45:25;;;;;;;5.95;4.18;;;;;;;;;;4989153;28;20026;-93
2022/07/12 00:47:52;;;;;;;7.70;4.50;;;;;;;;;;4988421;28;20026;-92
2022/07/12 00:50:19;;;;;;;6.68;4.50;;;;;;;;;;4990003;28;20145;-92
2022/07/12 00:52:47;;;;;;;7.47;4.43;;;;;;;;;;4986855;28;20038;-93
2022/07/12 00:55:14;;;;;;;6.97;4.53;;;;;;;;;;4984465;28;20030;-92
2022/07/12 00:57:43;;;;;;;7.55;4.68;;;;;;;;;;4984724;28;20154;-92
2022/07/12 01:00:10;;;;;;;5.85;4.07;;;;;;;;;;4988273;28;20026;-90
2022/07/12 01:02:36;;;;;;;6.35;4.18;;;;;;;;;;4987479;28;20030;-92
2022/07/12 01:05:05;;;;;;;5.68;3.53;;;;;;;;;;4984788;28;20093;-91
2022/07/12 01:07:30;;;;;;;7.43;4.22;;;;;;;;;;4987001;28;20096;-92
2022/07/12 01:09:56;;;;;;;5.82;3.70;;;;;;;;;;4984814;28;20042;-91
2022/07/12 01:12:22;;;;;;;7.85;4.13;;;;;;;;;;4979565;28;20034;-91
2022/07/12 01:14:49;;;;;;;8.23;3.88;;;;;;;;;;4978155;28;20037;-92
2022/07/12 01:17:14;;;;;;;6.25;4.10;;;;;;;;;;4983674;28;20034;-90
2022/07/12 01:19:41;;;;;;;6.03;3.92;;;;;;;;;;4982414;28;20033;-91
2022/07/12 01:22:10;;;;;;;6.90;4.22;;;;;;;;;;4984736;28;20035;-91
2022/07/12 01:24:37;;;;;;;6.05;3.90;;;;;;;;;;4985628;28;20147;-91
2022/07/12 01:27:04;;;;;;;5.15;3.53;;;;;;;;;;4987647;28;20093;-91
2022/07/12 01:29:30;;;;;;;6.95;4.35;;;;;;;;;;4988298;28;20034;-91
2022/07/12 01:32:24;;;;;;;8.57;4.85;;;;;;;;;;4988641;28;20038;-92
2022/07/12 01:34:43;;;;;;;6.70;4.43;;;;;;;;;;4984339;28;20287;-91
2022/07/12 01:37:09;;;;;;;6.88;3.85;;;;;;;;;;4989232;28;20065;-91
2022/07/12 01:39:35;;;;;;;6.53;4.15;;;;;;;;;;4990464;28;20042;-92
2022/07/12 01:42:01;;;;;;;6.40;3.83;;;;;;;;;;4980113;28;20038;-92
2022/07/12 01:44:26;;;;;;;8.05;4.82;;;;;;;;;;4987525;28;20034;-93
2022/07/12 01:46:51;;;;;;;4.82;3.58;;;;;;;;;;4985566;28;20581;-91
2022/07/12 01:49:17;;;;;;;7.13;3.80;;;;;;;;;;5004517;28;20081;-92
2022/07/12 01:51:42;;;;;;;6.38;3.75;;;;;;;;;;4988875;28;20173;-91
2022/07/12 01:54:08;;;;;;;5.45;3.72;;;;;;;;;;4988005;28;20513;-92
2022/07/12 01:56:35;;;;;;;6.35;4.07;;;;;;;;;;4987779;28;20031;-91
2022/07/12 01:59:01;;;;;;;7.85;4.20;;;;;;;;;;4984789;28;20417;-91
2022/07/12 02:01:27;;;;;;;8.00;4.20;;;;;;;;;;4987788;28;20034;-90
2022/07/12 02:03:53;;;;;;;5.70;3.72;;;;;;;;;;4987266;28;20034;-90
2022/07/12 02:06:19;;;;;;;6.55;4.07;;;;;;;;;;4988357;28;20042;-90
2022/07/12 02:08:45;;;;;;;7.80;4.30;;;;;;;;;;4988665;28;20121;-88
2022/07/12 02:11:10;;;;;;;8.45;4.25;;;;;;;;;;4989747;28;20979;-90
2022/07/12 02:13:35;;;;;;;6.38;4.10;;;;;;;;;;4989037;28;20062;-90
2022/07/12 02:16:01;;;;;;;7.95;4.47;;;;;;;;;;4984472;28;20035;-90
2022/07/12 02:18:26;;;;;;;9.35;5.05;;;;;;;;;;4989388;28;20037;-90
2022/07/12 02:20:51;;;;;;;8.45;5.25;;;;;;;;;;4987713;28;20035;-90
2022/07/12 02:23:17;;;;;;;7.88;4.63;;;;;;;;;;4985927;28;20046;-90
2022/07/12 02:25:42;;;;;;;6.82;4.20;;;;;;;;;;4988413;28;20042;-90
2022/07/12 02:28:07;;;;;;;5.53;4.10;;;;;;;;;;4990714;28;20102;-89
2022/07/12 02:30:33;;;;;;;6.72;3.80;;;;;;;;;;4992660;28;20068;-90
2022/07/12 02:32:58;;;;;;;6.93;4.03;;;;;;;;;;4993494;28;20482;-91
2022/07/12 02:35:24;;;;;;;6.13;3.60;;;;;;;;;;4988426;28;20742;-89
2022/07/12 02:37:50;;;;;;;5.95;3.67;;;;;;;;;;4989681;28;20536;-89
2022/07/12 02:42:59;;;;;;;5.88;3.78;;;;;;;;;;4987616;28;20125;-88
2022/07/12 02:45:25;;;;;;;7.43;4.00;;;;;;;;;;4986962;28;20489;-89
2022/07/12 02:47:50;;;;;;;6.28;4.05;;;;;;;;;;4989066;28;20036;-88
2022/07/12 02:50:16;;;;;;;9.32;4.45;;;;;;;;;;4990443;28;20468;-88
2022/07/12 02:52:41;;;;;;;6.82;4.13;;;;;;;;;;4989876;28;20145;-89
2022/07/12 02:55:07;;;;;;;9.73;5.28;;;;;;;;;;4991265;28;20117;-89
2022/07/12 02:57:32;;;;;;;8.57;5.50;;;;;;;;;;4990422;28;20065;-88
2022/07/12 02:59:57;;;;;;;8.00;4.70;;;;;;;;;;4991487;28;20089;-90
2022/07/12 03:02:23;;;;;;;9.43;4.30;;;;;;;;;;4990886;28;20539;-89
2022/07/12 03:04:48;;;;;;;6.35;3.58;;;;;;;;;;4991447;28;20108;-89
2022/07/12 03:07:13;;;;;;;6.43;4.10;;;;;;;;;;4989935;28;20047;-87
2022/07/12 03:09:39;;;;;;;6.05;4.10;;;;;;;;;;4988058;28;20035;-88
2022/07/12 03:12:05;;;;;;;5.63;3.65;;;;;;;;;;4989370;28;20165;-87
2022/07/12 03:14:30;;;;;;;7.50;3.65;;;;;;;;;;4989756;28;20089;-87
2022/07/12 03:16:55;;;;;;;5.75;4.28;;;;;;;;;;4989406;28;20141;-87
2022/07/12 03:19:20;;;;;;;8.90;4.53;;;;;;;;;;4989022;28;20196;-87
2022/07/12 03:21:46;;;;;;;6.88;4.30;;;;;;;;;;4990558;28;20117;-86
2022/07/12 03:24:11;;;;;;;7.47;3.78;;;;;;;;;;4989514;28;20072;-86
2022/07/12 03:26:36;;;;;;;7.93;4.82;;;;;;;;;;4987332;28;20935;-87
2022/07/12 03:29:02;;;;;;;10.75;4.75;;;;;;;;;;4986747;28;20030;-87
2022/07/12 03:31:28;;;;;;;9.00;4.10;;;;;;;;;;4985113;28;20153;-85
2022/07/12 03:33:53;;;;;;;7.65;4.05;;;;;;;;;;4986875;28;20050;-87
2022/07/12 03:36:19;;;;;;;6.78;4.00;;;;;;;;;;4986860;28;20056;-87
2022/07/12 03:38:44;;;;;;;5.53;3.75;;;;;;;;;;4988223;28;20417;-87
2022/07/12 03:41:09;;;;;;;8.02;4.03;;;;;;;;;;4985616;28;20125;-86
2022/07/12 03:43:35;;;;;;;6.50;4.15;;;;;;;;;;4986105;28;20509;-86
2022/07/12 03:46:00;;;;;;;7.82;4.70;;;;;;;;;;4987737;28;20698;-87
2022/07/12 03:48:25;;;;;;;8.00;4.47;;;;;;;;;;4987800;28;20125;-87
2022/07/12 03:50:51;;;;;;;7.95;4.38;;;;;;;;;;4985924;28;20027;-87
2022/07/12 03:53:16;;;;;;;7.80;4.28;;;;;;;;;;4988587;28;20038;-87
2022/07/12 03:55:41;;;;;;;6.95;3.95;;;;;;;;;;4984245;28;20436;-87
2022/07/12 03:58:07;;;;;;;6.72;3.83;;;;;;;;;;4989163;28;20050;-87
2022/07/12 04:00:32;;;;;;;8.15;3.83;;;;;;;;;;4987934;28;20066;-87
2022/07/12 04:02:59;;;;;;;6.82;4.03;;;;;;;;;;4988044;28;20565;-87
2022/07/12 04:05:25;;;;;;;11.65;4.30;;;;;;;;;;4989466;28;20101;-87
2022/07/12 04:07:51;;;;;;;6.45;4.38;;;;;;;;;;4987293;28;20030;-88
2022/07/12 04:10:17;;;;;;;6.25;4.22;;;;;;;;;;4988447;28;20551;-87
2022/07/12 04:12:42;;;;;;;7.28;4.30;;;;;;;;;;4982425;28;20030;-86
2022/07/12 04:15:08;;;;;;;8.45;4.32;;;;;;;;;;4984750;28;20037;-87
2022/07/12 04:17:33;;;;;;;9.52;4.70;;;;;;;;;;4988461;28;20034;-87
2022/07/12 04:19:59;;;;;;;9.10;4.75;;;;;;;;;;4989702;28;20045;-87
2022/07/12 04:22:24;;;;;;;6.18;4.03;;;;;;;;;;4987543;28;20038;-87
2022/07/12 04:24:49;;;;;;;8.43;4.80;;;;;;;;;;4991228;28;20099;-88
2022/07/12 04:27:15;;;;;;;8.25;4.80;;;;;;;;;;4987227;28;20026;-87
2022/07/12 04:29:40;;;;;;;9.38;5.40;;;;;;;;;;4990742;28;20053;-87
2022/07/12 04:32:06;;;;;;;9.93;5.10;;;;;;;;;;4989051;28;20038;-89
2022/07/12 04:34:31;;;;;;;9.98;5.07;;;;;;;;;;4989573;28;20054;-88
2022/07/12 04:36:56;;;;;;;12.73;5.63;;;;;;;;;;4987903;28;20066;-88
2022/07/12 04:39:22;;;;;;;9.93;4.93;;;;;;;;;;4989908;28;20030;-88
2022/07/12 04:41:48;;;;;;;8.13;4.72;;;;;;;;;;4985318;28;20033;-88
2022/07/12 04:44:13;;;;;;;7.03;4.60;;;;;;;;;;4990391;28;20065;-89
2022/07/12 04:46:38;;;;;;;9.95;5.03;;;;;;;;;;4988196;28;20061;-89
2022/07/12 04:49:06;;;;;;;8.75;5.13;;;;;;;;;;4986579;28;20027;-90
2022/07/12 04:51:31;;;;;;;9.85;5.18;;;;;;;;;;4990741;28;20042;-89
2022/07/12 04:53:57;;;;;;;10.60;5.35;;;;;;;;;;4992758;28;20027;-92
2022/07/12 04:56:22;;;;;;;7.97;5.10;;;;;;;;;;4986983;28;20062;-91
2022/07/12 04:58:48;;;;;;;9.15;5.20;;;;;;;;;;4986061;28;20053;-89
2022/07/12 05:01:14;;;;;;;13.27;5.10;;;;;;;;;;4988444;28;20062;-90
2022/07/12 05:03:40;;;;;;;8.43;4.25;;;;;;;;;;4989583;28;20045;-93
2022/07/12 05:06:05;;;;;;;9.10;4.25;;;;;;;;;;4986414;28;20038;-93
2022/07/12 05:08:30;;;;;;;10.57;5.50;;;;;;;;;;4995426;28;20050;-94
2022/07/12 05:10:56;;;;;;;8.23;5.57;;;;;;;;;;4993545;28;20141;-94
2022/07/12 05:13:21;;;;;;;10.63;5.70;;;;;;;;;;4990591;28;20030;-94
2022/07/12 05:15:47;;;;;;;7.82;5.15;;;;;;;;;;4989510;28;20135;-94
2022/07/12 05:18:13;;;;;;;9.02;5.50;;;;;;;;;;4990066;28;20521;-94
2022/07/12 05:20:38;;;;;;;8.98;5.35;;;;;;;;;;4985895;28;20112;-94
2022/07/12 05:23:04;;;;;;;8.82;6.05;;;;;;;;;;4993509;28;20034;-93
2022/07/12 05:25:29;;;;;;;11.70;5.90;;;;;;;;;;4996115;28;20113;-93
2022/07/12 05:27:54;;;;;;;8.85;5.63;;;;;;;;;;4989513;28;20053;-93
2022/07/12 05:30:21;;;;;;;11.45;6.22;;;;;;;;;;4986313;28;20117;-92
2022/07/12 05:32:46;;;;;;;9.57;5.28;;;;;;;;;;4986970;28;20022;-92
2022/07/12 05:35:15;;;;;;;9.40;6.00;;;;;;;;;;4982703;28;21414;-92
2022/07/12 05:37:40;;;;;;;10.35;5.65;;;;;;;;;;4985582;28;20066;-91
2022/07/12 05:40:07;;;;;;;9.35;5.97;;;;;;;;;;4981155;28;20644;-91
2022/07/12 05:42:32;;;;;;;9.63;5.95;;;;;;;;;;4985163;28;20137;-92
2022/07/12 05:44:57;;;;;;;10.45;6.00;;;;;;;;;;4986930;28;20042;-91
2022/07/12 05:47:23;;;;;;;11.07;5.88;;;;;;;;;;4981446;28;20058;-89
2022/07/12 05:49:48;;;;;;;10.57;5.85;;;;;;;;;;4982988;28;20054;-90
2022/07/12 05:54:57;;;;;;;9.55;5.97;;;;;;;;;;4982441;28;20070;-90
2022/07/12 05:57:23;;;;;;;9.32;5.40;;;;;;;;;;4981224;28;20026;-90
2022/07/12 05:59:48;;;;;;;9.45;5.85;;;;;;;;;;4984120;28;20677;-90
2022/07/12 06:02:17;;;;;;;11.32;5.30;;;;;;;;;;4986146;28;20034;-89
2022/07/12 06:04:42;;;;;;;9.68;5.28;;;;;;;;;;4984528;28;20074;-90
2022/07/12 06:07:08;;;;;;;11.25;5.68;;;;;;;;;;4981171;28;20042;-90
2022/07/12 06:09:33;;;;;;;10.65;5.40;;;;;;;;;;4999326;28;20034;-89
2022/07/12 06:12:03;;;;;;;10.10;5.03;;;;;;;;;;4989806;28;20027;-90
2022/07/12 06:14:28;;;;;;;10.30;5.63;;;;;;;;;;4976681;28;20543;-89
2022/07/12 06:16:53;;;;;;;11.60;5.85;;;;;;;;;;4985800;28;20054;-88
2022/07/12 06:19:23;;;;;;;11.77;5.35;;;;;;;;;;4987691;28;20034;-91
2022/07/12 06:21:49;;;;;;;11.80;5.43;;;;;;;;;;4987211;28;20066;-90
2022/07/12 06:24:14;;;;;;;8.13;5.13;;;;;;;;;;4984902;28;20072;-86
2022/07/12 06:26:40;;;;;;;9.40;5.55;;;;;;;;;;4982426;28;20435;-86
2022/07/12 06:29:05;;;;;;;8.70;5.60;;;;;;;;;;4979746;28;20038;-85
2022/07/12 06:31:30;;;;;;;9.80;5.45;;;;;;;;;;4981870;28;20093;-84
2022/07/12 06:33:56;;;;;;;11.15;5.68;;;;;;;;;;4987694;28;20054;-84
2022/07/12 06:36:21;;;;;;;12.52;5.60;;;;;;;;;;4987509;28;20038;-84
2022/07/12 06:38:47;;;;;;;9.15;6.05;;;;;;;;;;4989013;28;20366;-84
2022/07/12 06:41:13;;;;;;;10.25;5.70;;;;;;;;;;4987418;28;20097;-84
2022/07/12 06:43:38;;;;;;;9.52;5.45;;;;;;;;;;4988258;28;20046;-83
2022/07/12 06:46:04;;;;;;;11.10;6.25;;;;;;;;;;4983851;28;20037;-83
2022/07/12 06:48:29;;;;;;;9.57;5.95;;;;;;;;;;4977973;28;20073;-82
2022/07/12 06:50:55;;;;;;;14.77;6.10;;;;;;;;;;4979974;28;20026;-83
2022/07/12 06:53:20;;;;;;;10.35;5.90;;;;;;;;;;4995590;28;20042;-83
2022/07/12 06:55:45;;;;;;;10.40;6.15;;;;;;;;;;4978156;28;20670;-82
2022/07/12 06:58:11;;;;;;;10.38;5.75;;;;;;;;;;4985226;28;20054;-83
2022/07/12 07:00:36;;;;;;;10.07;6.22;;;;;;;;;;4973669;28;20042;-83
2022/07/12 07:03:05;;;;;;;11.57;6.05;;;;;;;;;;4980345;28;20592;-83
2022/07/12 07:05:30;;;;;;;9.75;5.85;;;;;;;;;;4986534;28;20053;-84
2022/07/12 07:07:55;;;;;;;9.25;4.85;;;;;;;;;;4980722;28;20050;-84
2022/07/12 07:10:21;;;;;;;12.82;5.60;;;;;;;;;;4977200;28;20540;-83
2022/07/12 07:12:46;;;;;;;12.32;5.07;;;;;;;;;;4978541;28;20418;-83
2022/07/12 07:15:14;;;;;;;9.82;5.13;;;;;;;;;;4980945;28;20037;-83
2022/07/12 07:17:39;;;;;;;8.15;5.10;;;;;;;;;;4981984;28;20457;-83
2022/07/12 07:20:05;;;;;;;9.20;5.68;;;;;;;;;;4980671;28;20149;-83
2022/07/12 07:22:30;;;;;;;9.27;5.30;;;;;;;;;;4985250;28;20454;-83
2022/07/12 07:24:55;;;;;;;13.70;5.72;;;;;;;;;;4982217;28;20550;-84
2022/07/12 07:27:21;;;;;;;9.48;4.70;;;;;;;;;;4976361;28;20501;-84
2022/07/12 07:32:30;;;;;;;9.30;4.85;;;;;;;;;;4979271;28;20665;-83
2022/07/12 07:34:56;;;;;;;7.20;4.28;;;;;;;;;;4983315;28;20074;-84
2022/07/12 07:37:23;;;;;;;9.60;4.57;;;;;;;;;;4984815;28;20058;-84
2022/07/12 07:39:48;;;;;;;8.00;4.68;;;;;;;;;;4980035;28;20038;-84
2022/07/12 07:42:14;;;;;;;8.68;4.50;;;;;;;;;;4982934;28;20508;-84
2022/07/12 07:44:39;;;;;;;12.23;4.50;;;;;;;;;;4983085;28;20030;-84
2022/07/12 07:47:04;;;;;;;9.73;5.03;;;;;;;;;;4978759;28;20043;-84
2022/07/12 07:49:30;;;;;;;7.05;4.35;;;;;;;;;;4975786;28;20649;-84
2022/07/12 07:51:55;;;;;;;9.20;4.15;;;;;;;;;;4982752;28;20092;-84
2022/07/12 07:54:20;;;;;;;7.25;4.10;;;;;;;;;;4976685;28;20113;-83
2022/07/12 07:56:46;;;;;;;8.75;4.50;;;;;;;;;;4981424;28;20041;-85
2022/07/12 07:59:11;;;;;;;8.63;4.70;;;;;;;;;;4980401;28;20045;-84
2022/07/12 08:01:42;;;;;;;7.50;3.97;;;;;;;;;;4979906;28;20061;-83
2022/07/12 08:04:15;;;;;;;9.07;4.75;;;;;;;;;;4979252;28;20045;-83
2022/07/12 08:06:41;;;;;;;11.07;4.63;;;;;;;;;;4995470;28;20674;-82
2022/07/12 08:09:07;;;;;;;10.30;4.72;;;;;;;;;;4978476;28;20028;-83
2022/07/12 08:11:33;;;;;;;8.13;4.55;;;;;;;;;;4980048;28;20045;-83
2022/07/12 08:13:59;;;;;;;6.13;4.25;;;;;;;;;;4979615;28;20050;-84
2022/07/12 08:16:24;;;;;;;7.40;3.88;;;;;;;;;;4978114;28;20058;-83
2022/07/12 08:18:49;;;;;;;7.80;4.72;;;;;;;;;;4979742;28;20034;-83
2022/07/12 08:21:15;;;;;;;11.27;4.97;;;;;;;;;;4979513;28;20061;-83
2022/07/12 08:23:40;;;;;;;8.25;4.50;;;;;;;;;;5002588;28;20508;-83
2022/07/12 08:26:05;;;;;;;7.40;4.38;;;;;;;;;;4981372;28;20528;-82
2022/07/12 08:28:31;;;;;;;9.25;4.32;;;;;;;;;;4978238;28;20066;-83
2022/07/12 08:30:56;;;;;;;7.22;4.35;;;;;;;;;;4979296;28;20045;-83
2022/07/12 08:33:21;;;;;;;6.45;3.95;;;;;;;;;;4979838;28;20030;-84
2022/07/12 08:35:47;;;;;;;6.40;4.22;;;;;;;;;;4978616;28;20101;-83
2022/07/12 08:38:13;;;;;;;8.70;4.22;;;;;;;;;;4976538;28;20046;-84
2022/07/12 08:40:39;;;;;;;7.30;4.60;;;;;;;;;;4979887;28;20038;-86
2022/07/12 08:43:05;;;;;;;8.88;4.43;;;;;;;;;;4980817;28;20069;-84
2022/07/12 08:45:30;;;;;;;5.68;3.70;;;;;;;;;;4980719;28;20405;-84
2022/07/12 08:47:56;;;;;;;5.35;4.20;;;;;;;;;;4981039;28;20030;-85
2022/07/12 08:50:26;;;;;;;6.13;4.18;;;;;;;;;;4979507;28;20113;-86
2022/07/12 08:52:53;;;;;;;4.72;3.45;;;;;;;;;;4994676;28;20038;-85
2022/07/12 08:55:24;;;;;;;5.18;3.95;;;;;;;;;;4979722;28;20032;-89
2022/07/12 08:57:52;;;;;;;6.00;3.97;;;;;;;;;;4978023;28;20042;-87
2022/07/12 09:00:18;;;;;;;5.05;3.38;;;;;;;;;;4979436;28;20034;-84
2022/07/12 09:02:45;;;;;;;5.75;3.97;;;;;;;;;;4975419;28;20030;-90
2022/07/12 09:05:11;;;;;;;5.38;3.30;;;;;;;;;;4973142;28;20042;-86
2022/07/12 09:07:37;;;;;;;5.88;3.50;;;;;;;;;;4976275;28;20030;-91
2022/07/12 09:10:07;;;;;;;4.45;3.00;;;;;;;;;;4979559;28;20046;-86
2022/07/12 09:12:34;;;;;;;7.07;3.40;;;;;;;;;;4978192;28;20026;-86
2022/07/12 09:15:23;;;;;;;4.43;3.30;;;;;;;;;;4979948;28;20027;-85
2022/07/12 09:17:58;;;;;;;7.65;3.70;;;;;;;;;;4980379;28;20521;-86
2022/07/12 09:20:25;;;;;;;4.78;3.33;;;;;;;;;;4977021;28;20031;-83
2022/07/12 09:22:53;;;;;;;4.97;3.47;;;;;;;;;;4976709;28;20121;-84
2022/07/12 09:25:18;;;;;;;6.47;3.67;;;;;;;;;;4979072;28;20030;-84
2022/07/12 09:27:52;;;;;;;4.63;3.22;;;;;;;;;;4976684;28;20387;-84
2022/07/12 09:30:18;;;;;;;5.43;3.40;;;;;;;;;;4980906;28;20030;-86
2022/07/12 09:36:10;;;;;;;4.60;3.33;;;;;;;;;;4978258;28;20580;-86
2022/07/12 09:38:39;;;;;;;4.10;3.10;;;;;;;;;;4983136;28;20034;-87
2022/07/12 09:41:08;;;;;;;4.10;3.30;;;;;;;;;;4981019;28;21230;-87
2022/07/12 09:43:34;;;;;;;4.95;3.00;;;;;;;;;;4985393;28;20038;-86
2022/07/12 09:46:00;;;;;;;5.00;2.95;;;;;;;;;;4997788;28;20031;-87
2022/07/12 09:48:28;;;;;;;3.55;2.92;;;;;;;;;;4980762;28;20029;-89
2022/07/12 09:50:56;;;;;;;4.32;2.42;;;;;;;;;;4978735;28;20110;-88
2022/07/12 09:53:33;;;;;;;4.05;2.85;;;;;;;;;;4980947;28;20026;-86
2022/07/12 09:56:04;;;;;;;4.97;2.50;;;;;;;;;;4981879;28;20042;-86
2022/07/12 09:58:40;;;;;;;3.67;2.70;;;;;;;;;;4983654;28;20042;-86
2022/07/12 10:01:06;;;;;;;3.55;2.83;;;;;;;;;;4997709;28;20058;-88
2022/07/12 10:03:34;;;;;;;4.00;2.95;;;;;;;;;;4988013;28;20034;-86
2022/07/12 10:06:04;;;;;;;5.18;2.60;;;;;;;;;;4984394;28;20146;-87
2022/07/12 10:08:30;;;;;;;3.88;2.60;;;;;;;;;;4983473;28;20450;-85
2022/07/12 10:10:56;;;;;;;5.15;2.67;;;;;;;;;;4981460;28;20042;-89
2022/07/12 10:13:22;;;;;;;3.22;2.50;;;;;;;;;;4999085;28;20035;-90
2022/07/12 10:15:49;;;;;;;5.57;2.65;;;;;;;;;;4985337;28;20121;-86
2022/07/12 10:18:20;;;;;;;6.47;2.70;;;;;;;;;;4983954;28;20037;-92
2022/07/12 10:20:49;;;;;;;4.57;3.08;;;;;;;;;;4982831;28;20054;-88
2022/07/12 10:23:35;;;;;;;5.43;3.05;;;;;;;;;;4981805;28;20034;-89
2022/07/12 10:26:24;;;;;;;6.97;2.80;;;;;;;;;;4987614;28;20069;-89
2022/07/12 10:29:00;;;;;;;3.80;2.50;;;;;;;;;;4982526;28;20398;-84
2022/07/12 10:31:30;;;;;;;3.17;2.30;;;;;;;;;;4976926;28;20081;-85
2022/07/12 10:34:09;;;;;;;4.53;1.98;;;;;;;;;;4977114;28;20061;-88
2022/07/12 10:36:56;;;;;;;3.70;2.10;;;;;;;;;;4979940;28;20045;-89
2022/07/12 10:39:26;;;;;;;4.03;2.50;;;;;;;;;;4977177;28;20049;-88
2022/07/12 10:42:14;;;;;;;4.07;2.50;;;;;;;;;;4981633;28;20446;-87
2022/07/12 10:45:11;;;;;;;5.45;2.80;;;;;;;;;;4987775;28;20450;-87
2022/07/12 10:47:55;;;;;;;2.92;2.42;;;;;;;;;;4977062;28;20042;-88
2022/07/12 10:50:47;;;;;;;4.97;2.45;;;;;;;;;;4984294;28;20031;-88
2022/07/12 10:53:20;;;;;;;4.97;2.78;;;;;;;;;;5001995;28;20034;-88
2022/07/12 10:56:07;;;;;;;3.17;2.58;;;;;;;;;;4982928;28;20046;-85
2022/07/12 10:58:59;;;;;;;5.68;2.97;;;;;;;;;;4985911;28;20085;-90
2022/07/12 11:01:30;;;;;;;4.50;2.50;;;;;;;;;;4979052;28;20050;-87
2022/07/12 11:04:06;;;;;;;4.15;2.90;;;;;;;;;;4982144;28;20049;-86
2022/07/12 11:06:35;;;;;;;3.10;2.30;;;;;;;;;;4987714;28;20053;-90
2022/07/12 11:09:07;;;;;;;4.10;2.67;;;;;;;;;;4987541;28;20045;-86
2022/07/12 11:11:39;;;;;;;5.28;2.95;;;;;;;;;;4985369;28;20561;-91
2022/07/12 11:14:05;;;;;;;4.05;2.83;;;;;;;;;;4982608;28;20560;-87
2022/07/12 11:16:31;;;;;;;4.53;3.10;;;;;;;;;;4980217;28;20061;-87
2022/07/12 11:18:56;;;;;;;3.58;2.45;;;;;;;;;;4982026;28;20437;-88
2022/07/12 11:21:23;;;;;;;4.28;2.33;;;;;;;;;;4984524;28;20042;-86
2022/07/12 11:23:49;;;;;;;2.60;1.92;;;;;;;;;;4984238;28;20022;-91
2022/07/12 11:26:15;;;;;;;5.45;2.40;;;;;;;;;;4987558;28;20057;-90
2022/07/12 11:28:42;;;;;;;3.20;2.63;;;;;;;;;;5001603;28;20129;-91
2022/07/12 11:31:17;;;;;;;4.40;2.38;;;;;;;;;;4985061;28;20051;-91
2022/07/12 11:33:47;;;;;;;3.67;2.22;;;;;;;;;;4979631;28;20045;-88
2022/07/12 11:36:14;;;;;;;4.03;2.20;;;;;;;;;;4983687;28;20022;-93
2022/07/12 11:38:41;;;;;;;4.35;2.40;;;;;;;;;;4984583;28;20081;-87
2022/07/12 11:41:08;;;;;;;5.57;2.65;;;;;;;;;;4983106;28;20039;-88
2022/07/12 11:43:36;;;;;;;3.22;2.50;;;;;;;;;;4985288;28;20046;-92
2022/07/12 11:46:02;;;;;;;2.80;2.38;;;;;;;;;;4984427;28;20057;-92
2022/07/12 11:48:32;;;;;;;3.38;2.53;;;;;;;;;;4985824;28;20022;-89
2022/07/12 11:51:00;;;;;;;4.47;2.20;;;;;;;;;;4981521;28;20027;-92
2022/07/12 11:53:26;;;;;;;3.38;2.35;;;;;;;;;;4976913;28;20137;-90
2022/07/12 11:55:56;;;;;;;3.83;2.58;;;;;;;;;;4979604;28;20544;-89
2022/07/12 11:58:24;;;;;;;3.95;2.50;;;;;;;;;;4980639;28;20052;-86
2022/07/12 12:00:51;;;;;;;9.70;2.42;;;;;;;;;;4979909;28;20050;-90
2022/07/12 12:03:18;;;;;;;3.85;1.92;;;;;;;;;;4983003;28;20034;-90
2022/07/12 12:05:46;;;;;;;2.25;1.92;;;;;;;;;;4982447;28;20054;-91
2022/07/12 12:08:16;;;;;;;4.00;2.20;;;;;;;;;;4983050;28;20452;-89
2022/07/12 12:10:42;;;;;;;2.45;1.83;;;;;;;;;;4983989;28;20117;-90
2022/07/12 12:13:18;;;;;;;2.72;2.00;;;;;;;;;;4979456;28;20513;-91
2022/07/12 12:15:54;;;;;;;2.42;1.80;;;;;;;;;;4978534;28;20062;-91
2022/07/12 12:18:34;;;;;;;5.40;1.95;;;;;;;;;;4997491;28;20088;-90
2022/07/12 12:21:05;;;;;;;2.95;2.10;;;;;;;;;;4983494;28;20064;-91
2022/07/12 12:23:37;;;;;;;3.45;1.90;;;;;;;;;;4981069;28;20776;-91
2022/07/12 12:26:22;;;;;;;2.72;1.92;;;;;;;;;;4972893;28;20045;-90
2022/07/12 12:28:50;;;;;;;3.17;1.90;;;;;;;;;;4998062;28;20430;-90
2022/07/12 12:31:22;;;;;;;2.25;2.05;;;;;;;;;;4975321;28;20045;-92
2022/07/12 12:33:56;;;;;;;3.37;2.20;;;;;;;;;;4989613;28;20035;-90
2022/07/12 12:36:25;;;;;;;3.78;2.17;;;;;;;;;;4983148;28;20289;-88
2022/07/12 12:38:53;;;;;;;2.55;2.00;;;;;;;;;;4982073;28;20056;-90
2022/07/12 12:41:22;;;;;;;4.38;2.30;;;;;;;;;;4980105;28;20049;-92
2022/07/12 12:43:59;;;;;;;5.18;2.10;;;;;;;;;;4984180;28;20039;-92
2022/07/12 12:46:43;;;;;;;11.48;1.77;;;;;;;;;;4980224;28;20590;-90
2022/07/12 12:49:09;;;;;;;3.05;2.05;;;;;;;;;;4981769;28;20038;-86
2022/07/12 12:51:58;;;;;;;2.00;1.80;;;;;;;;;;4979757;28;20371;-89
2022/07/12 12:54:40;;;;;;;2.75;2.30;;;;;;;;;;4980683;28;20401;-89
2022/07/12 12:57:07;;;;;;;4.10;2.17;;;;;;;;;;4994448;28;20033;-87
2022/07/12 12:59:33;;;;;;;2.15;1.60;;;;;;;;;;4977205;28;20112;-88
2022/07/12 13:01:59;;;;;;;2.20;1.75;;;;;;;;;;4979977;28;20042;-90
2022/07/12 13:04:33;;;;;;;3.40;1.55;;;;;;;;;;4977743;28;20041;-90
2022/07/12 13:06:58;;;;;;;2.85;1.60;;;;;;;;;;4983405;28;20068;-87
2022/07/12 13:09:24;;;;;;;2.38;1.85;;;;;;;;;;4978250;28;20057;-90
2022/07/12 13:11:50;;;;;;;2.22;1.80;;;;;;;;;;4985695;28;20045;-90
2022/07/12 13:14:15;;;;;;;2.13;1.60;;;;;;;;;;4978125;28;20085;-89
2022/07/12 13:16:41;;;;;;;4.22;1.77;;;;;;;;;;4981654;28;20045;-90
2022/07/12 13:19:07;;;;;;;3.42;1.80;;;;;;;;;;4997266;28;20038;-89
2022/07/12 13:21:33;;;;;;;13.63;1.77;;;;;;;;;;4983011;28;20034;-89
2022/07/12 13:23:58;;;;;;;7.00;1.83;;;;;;;;;;4984095;28;21080;-92
2022/07/12 13:26:24;;;;;;;2.45;1.73;;;;;;;;;;4983140;28;20387;-90
2022/07/12 13:28:49;;;;;;;2.88;1.65;;;;;;;;;;4984259;28;20140;-94
2022/07/12 13:31:14;;;;;;;2.17;1.92;;;;;;;;;;4991722;28;20042;-93
2022/07/12 13:33:40;;;;;;;2.08;1.65;;;;;;;;;;4985112;28;21114;-94
2022/07/12 13:36:05;;;;;;;4.57;1.70;;;;;;;;;;4980564;28;20026;-92
2022/07/12 13:38:31;;;;;;;2.25;1.80;;;;;;;;;;4983114;28;20038;-95
2022/07/12 13:40:56;;;;;;;1.63;1.52;;;;;;;;;;4986839;28;20043;-96
2022/07/12 13:43:22;;;;;;;1.80;1.50;;;;;;;;;;4990823;28;20125;-96
2022/07/12 13:45:50;;;;;;;1.70;1.50;;;;;;;;;;4990708;28;20058;-92
2022/07/12 13:48:19;;;;;;;3.08;1.63;;;;;;;;;;4991780;28;20784;-93
2022/07/12 13:50:44;;;;;;;2.53;1.80;;;;;;;;;;4990560;28;20031;-92
2022/07/12 13:53:10;;;;;;;2.00;1.70;;;;;;;;;;4989943;28;20050;-92
2022/07/12 13:55:36;;;;;;;2.83;1.70;;;;;;;;;;4989844;28;20061;-95
2022/07/12 13:58:06;;;;;;;2.67;1.70;;;;;;;;;;4978115;28;20041;-94
2022/07/12 14:00:34;;;;;;;1.70;1.55;;;;;;;;;;4987001;28;20031;-93
2022/07/12 14:02:59;;;;;;;1.77;1.60;;;;;;;;;;4987717;28;20058;-94
2022/07/12 14:05:25;;;;;;;2.15;1.70;;;;;;;;;;4988162;28;20136;-91
2022/07/12 14:07:51;;;;;;;2.90;1.63;;;;;;;;;;4978725;28;20038;-93
2022/07/12 14:10:17;;;;;;;2.65;1.88;;;;;;;;;;4987115;28;20055;-92
2022/07/12 14:12:42;;;;;;;3.78;1.60;;;;;;;;;;4985041;28;20051;-93
2022/07/12 14:15:14;;;;;;;1.70;1.60;;;;;;;;;;4988845;28;20030;-95
2022/07/12 14:17:42;;;;;;;2.13;1.75;;;;;;;;;;4999494;28;20046;-92
2022/07/12 14:20:09;;;;;;;1.90;1.70;;;;;;;;;;4987275;28;20453;-93
2022/07/12 14:22:38;;;;;;;1.90;1.70;;;;;;;;;;4990161;28;20502;-94
2022/07/12 14:25:05;;;;;;;2.20;2.00;;;;;;;;;;4991526;28;20039;-94
2022/07/12 14:27:31;;;;;;;3.00;1.70;;;;;;;;;;4988809;28;20088;-94
2022/07/12 14:29:57;;;;;;;1.85;1.60;;;;;;;;;;4991731;28;20108;-94
2022/07/12 14:32:22;;;;;;;2.17;1.60;;;;;;;;;;4980166;28;20654;-91
2022/07/12 14:34:47;;;;;;;1.92;1.70;;;;;;;;;;4989060;28;20069;-94
2022/07/12 14:37:13;;;;;;;2.50;1.80;;;;;;;;;;4991380;28;20441;-94
2022/07/12 14:39:39;;;;;;;2.05;1.85;;;;;;;;;;4992799;28;20193;-94
2022/07/12 14:42:04;;;;;;;2.13;1.70;;;;;;;;;;4993365;28;20080;-93
2022/07/12 14:44:30;;;;;;;3.05;1.73;;;;;;;;;;4991401;28;20053;-95
2022/07/12 14:46:59;;;;;;;2.10;1.90;;;;;;;;;;4985829;28;20046;-94
2022/07/12 14:49:28;;;;;;;3.28;2.08;;;;;;;;;;4976706;28;20580;-95
2022/07/12 14:51:54;;;;;;;3.65;2.08;;;;;;;;;;5000228;28;20046;-94
2022/07/12 14:54:20;;;;;;;3.70;1.90;;;;;;;;;;4986485;28;20130;-91